createdAt,value
2023-04-20T00:00:14.589Z,99089.47
2023-04-20T00:02:44.252Z,99096.88
2023-04-20T00:05:13.690Z,99091.66
2023-04-20T00:07:43.111Z,99090.50
2023-04-20T00:10:14.263Z,99084.75
2023-04-20T00:12:43.544Z,99092.88
2023-04-20T00:15:12.112Z,99085.31
2023-04-20T00:17:40.626Z,99084.19
2023-04-20T00:20:11.221Z,99083.97
2023-04-20T00:22:39.301Z,99085.38
2023-04-20T00:25:08.368Z,99081.91
2023-04-20T00:27:36.680Z,99085.75
2023-04-20T00:30:07.344Z,99082.91
2023-04-20T00:32:35.519Z,99082.06
2023-04-20T00:35:04.076Z,99079.59
2023-04-20T00:37:33.504Z,99083.00
2023-04-20T00:40:01.648Z,99076.72
2023-04-20T00:42:29.729Z,99083.34
2023-04-20T00:44:57.823Z,99077.38
2023-04-20T00:47:26.133Z,99079.94
2023-04-20T00:49:55.895Z,99085.78
2023-04-20T00:52:24.167Z,99083.44
2023-04-20T00:54:54.101Z,99075.53
2023-04-20T00:57:23.989Z,99083.19
2023-04-20T00:59:52.458Z,99079.38
2023-04-20T01:02:20.727Z,99082.03
2023-04-20T01:04:49.340Z,99080.88
2023-04-20T01:07:17.823Z,99083.63
2023-04-20T01:09:46.088Z,99076.59
2023-04-20T01:12:15.633Z,99078.38
2023-04-20T01:14:43.773Z,99081.09
2023-04-20T01:17:11.980Z,99080.31
2023-04-20T01:19:40.123Z,99077.66
2023-04-20T01:22:08.497Z,99084.00
2023-04-20T01:24:38.150Z,99077.91
2023-04-20T01:27:06.338Z,99074.16
2023-04-20T01:29:34.527Z,99080.06
2023-04-20T01:32:02.667Z,99079.34
2023-04-20T01:34:30.942Z,99080.59
2023-04-20T01:36:59.526Z,99075.41
2023-04-20T01:39:27.820Z,99072.38
2023-04-20T01:41:57.344Z,99075.16
2023-04-20T01:44:25.452Z,99075.22
2023-04-20T01:46:53.593Z,99069.63
2023-04-20T01:49:21.831Z,99076.63
2023-04-20T01:51:49.972Z,99074.75
2023-04-20T01:54:18.167Z,99065.75
2023-04-20T01:56:46.242Z,99066.53
2023-04-20T01:59:16.003Z,99069.63
2023-04-20T02:01:44.329Z,99072.69
2023-04-20T02:04:12.373Z,99060.28
2023-04-20T02:06:41.074Z,99063.28
2023-04-20T02:09:10.015Z,99061.78
2023-04-20T02:11:38.356Z,99062.81
2023-04-20T02:14:06.469Z,99063.25
2023-04-20T02:16:37.926Z,99069.44
2023-04-20T02:19:06.428Z,99067.75
2023-04-20T02:21:34.597Z,99076.31
2023-04-20T02:24:02.846Z,99078.41
2023-04-20T02:26:31.082Z,99080.16
2023-04-20T02:28:59.115Z,99078.59
2023-04-20T02:31:27.447Z,99079.06
2023-04-20T02:33:57.157Z,99077.91
2023-04-20T02:36:25.222Z,99083.41
2023-04-20T02:38:53.304Z,99078.81
2023-04-20T02:41:21.488Z,99080.34
2023-04-20T02:43:52.260Z,99076.31
2023-04-20T02:46:20.624Z,99079.06
2023-04-20T02:48:48.794Z,99074.38
2023-04-20T02:51:18.264Z,99074.81
2023-04-20T02:53:46.359Z,99086.03
2023-04-20T02:56:14.598Z,99079.41
2023-04-20T02:58:43.034Z,99081.66
2023-04-20T03:01:11.178Z,99080.81
2023-04-20T03:03:41.915Z,99073.03
2023-04-20T03:06:10.154Z,99072.53
2023-04-20T03:08:40.035Z,99069.94
2023-04-20T03:11:08.220Z,99079.59
2023-04-20T03:13:36.413Z,99076.56
2023-04-20T03:16:05.175Z,99081.25
2023-04-20T03:18:33.744Z,99074.44
2023-04-20T03:21:01.823Z,99084.31
2023-04-20T03:23:29.929Z,99078.34
2023-04-20T03:25:59.505Z,99081.06
2023-04-20T03:28:27.680Z,99077.41
2023-04-20T03:30:57.953Z,99079.34
2023-04-20T03:33:27.832Z,99068.34
2023-04-20T03:35:56.477Z,99073.38
2023-04-20T03:38:24.563Z,99069.03
2023-04-20T03:40:52.740Z,99070.22
2023-04-20T03:43:22.119Z,99069.31
2023-04-20T03:45:50.212Z,99069.50
2023-04-20T03:48:18.356Z,99069.66
2023-04-20T03:50:46.524Z,99078.19
2023-04-20T03:53:14.655Z,99081.38
2023-04-20T03:55:42.670Z,99077.47
2023-04-20T03:58:10.790Z,99074.81
2023-04-20T04:00:40.334Z,99086.72
2023-04-20T04:03:08.644Z,99086.19
2023-04-20T04:05:37.180Z,99079.59
2023-04-20T04:08:05.385Z,99079.25
2023-04-20T04:10:33.593Z,99085.97
2023-04-20T04:13:01.624Z,99089.97
2023-04-20T04:15:29.772Z,99093.25
2023-04-20T04:18:00.270Z,99092.44
2023-04-20T04:20:28.365Z,99098.84
2023-04-20T04:22:57.486Z,99100.78
2023-04-20T04:25:25.872Z,99105.25
2023-04-20T04:27:54.613Z,99103.88
2023-04-20T04:30:24.279Z,99099.22
2023-04-20T04:32:52.339Z,99099.41
2023-04-20T04:35:22.117Z,99101.91
2023-04-20T04:37:50.244Z,99103.63
2023-04-20T04:40:18.464Z,99099.81
2023-04-20T04:42:48.866Z,99108.03
2023-04-20T04:45:18.545Z,99107.38
2023-04-20T04:47:47.082Z,99102.28
2023-04-20T04:50:15.457Z,99104.06
2023-04-20T04:52:45.207Z,99107.50
2023-04-20T04:55:15.034Z,99102.72
2023-04-20T04:57:44.472Z,99100.34
2023-04-20T05:00:13.536Z,99102.25
2023-04-20T05:02:41.905Z,99104.56
2023-04-20T05:05:11.741Z,99094.16
2023-04-20T05:07:40.299Z,99101.97
2023-04-20T05:10:10.518Z,99110.56
2023-04-20T05:12:39.723Z,99105.25
2023-04-20T05:15:09.035Z,99106.88
2023-04-20T05:17:37.257Z,99107.38
2023-04-20T05:20:06.951Z,99111.31
2023-04-20T05:22:35.063Z,99117.25
2023-04-20T05:25:03.458Z,99110.41
2023-04-20T05:27:34.525Z,99114.34
2023-04-20T05:30:16.523Z,99120.31
2023-04-20T05:32:51.468Z,99117.75
2023-04-20T05:35:21.388Z,99121.31
2023-04-20T05:37:49.868Z,99121.34
2023-04-20T05:40:17.891Z,99117.53
2023-04-20T05:42:47.653Z,99119.91
2023-04-20T05:45:15.879Z,99123.06
2023-04-20T05:47:43.997Z,99123.53
2023-04-20T05:50:12.143Z,99120.13
2023-04-20T05:52:40.330Z,99120.56
2023-04-20T05:55:09.441Z,99126.41
2023-04-20T05:57:42.803Z,99114.78
2023-04-20T06:00:14.600Z,99124.59
2023-04-20T06:02:43.773Z,99113.41
2023-04-20T06:05:12.950Z,99119.31
2023-04-20T06:07:41.345Z,99129.13
2023-04-20T06:10:10.488Z,99124.09
2023-04-20T06:12:38.827Z,99123.34
2023-04-20T06:15:25.394Z,99125.66
2023-04-20T06:17:55.806Z,99121.03
2023-04-20T06:20:24.440Z,99127.31
2023-04-20T06:22:52.813Z,99124.22
2023-04-20T06:25:20.973Z,99130.03
2023-04-20T06:27:51.311Z,99134.34
2023-04-20T06:30:20.724Z,99132.81
2023-04-20T06:32:48.925Z,99128.94
2023-04-20T06:35:18.600Z,99132.88
2023-04-20T06:37:46.810Z,99128.19
2023-04-20T06:40:16.254Z,99121.94
2023-04-20T06:42:44.580Z,99128.19
2023-04-20T06:45:13.773Z,99134.03
2023-04-20T06:47:41.933Z,99119.59
2023-04-20T06:50:17.185Z,99123.50
2023-04-20T06:52:48.359Z,99123.88
2023-04-20T06:55:16.725Z,99120.78
2023-04-20T06:57:44.866Z,99120.03
2023-04-20T07:00:14.245Z,99126.28
2023-04-20T07:02:46.708Z,99117.34
2023-04-20T07:05:16.029Z,99120.88
2023-04-20T07:07:44.995Z,99124.78
2023-04-20T07:10:16.426Z,99126.38
2023-04-20T07:12:45.186Z,99127.56
2023-04-20T07:15:13.874Z,99123.66
2023-04-20T07:17:42.167Z,99129.13
2023-04-20T07:20:11.221Z,99130.66
2023-04-20T07:22:40.383Z,99122.09
2023-04-20T07:25:10.393Z,99123.66
2023-04-20T07:27:42.169Z,99128.75
2023-04-20T07:30:12.363Z,99133.41
2023-04-20T07:32:41.589Z,99122.13
2023-04-20T07:35:10.937Z,99123.66
2023-04-20T07:37:39.464Z,99125.59
2023-04-20T07:40:09.816Z,99124.03
2023-04-20T07:42:39.429Z,99122.50
2023-04-20T07:45:09.109Z,99130.69
2023-04-20T07:47:37.642Z,99133.78
2023-04-20T07:50:07.168Z,99131.06
2023-04-20T07:52:35.844Z,99128.69
2023-04-20T07:55:03.996Z,99128.31
2023-04-20T07:57:32.169Z,99139.56
2023-04-20T08:00:01.771Z,99128.25
2023-04-20T08:02:30.077Z,99127.44
2023-04-20T08:04:58.566Z,99120.41
2023-04-20T08:07:26.952Z,99125.03
2023-04-20T08:09:56.930Z,99119.19
2023-04-20T08:12:26.375Z,99120.44
2023-04-20T08:14:55.065Z,99118.91
2023-04-20T08:17:24.611Z,99114.97
2023-04-20T08:19:52.881Z,99116.94
2023-04-20T08:22:21.108Z,99115.00
2023-04-20T08:24:49.324Z,99114.59
2023-04-20T08:27:17.535Z,99109.50
2023-04-20T08:29:47.451Z,99122.00
2023-04-20T08:32:15.674Z,99117.69
2023-04-20T08:34:45.232Z,99115.72
2023-04-20T08:37:13.468Z,99112.22
2023-04-20T08:39:41.616Z,99107.91
2023-04-20T08:42:09.898Z,99105.91
2023-04-20T08:44:38.246Z,99098.44
2023-04-20T08:47:06.717Z,99109.72
2023-04-20T08:49:36.948Z,99109.28
2023-04-20T08:52:07.316Z,99104.56
2023-04-20T08:54:42.814Z,99098.28
2023-04-20T08:57:17.727Z,99108.84
2023-04-20T08:59:46.184Z,99099.09
2023-04-20T09:02:15.340Z,99097.00
2023-04-20T09:04:43.703Z,99086.81
2023-04-20T09:07:20.984Z,99083.31
2023-04-20T09:09:56.496Z,99092.94
2023-04-20T09:12:25.501Z,99100.22
2023-04-20T09:14:56.108Z,99096.53
2023-04-20T09:17:35.736Z,99100.41
2023-04-20T09:20:07.064Z,99113.25
2023-04-20T09:22:37.631Z,99092.53
2023-04-20T09:25:14.785Z,99100.28
2023-04-20T09:27:42.980Z,99089.22
2023-04-20T09:30:12.348Z,99086.16
2023-04-20T09:32:40.491Z,99082.47
2023-04-20T09:35:09.240Z,99085.22
2023-04-20T09:37:48.879Z,99090.03
2023-04-20T09:40:19.527Z,99094.06
2023-04-20T09:42:50.181Z,99087.88
2023-04-20T09:45:19.812Z,99075.59
2023-04-20T09:47:50.144Z,99073.47
2023-04-20T09:50:26.859Z,99082.69
2023-04-20T09:53:02.648Z,99086.72
2023-04-20T09:55:32.557Z,99072.06
2023-04-20T09:58:04.134Z,99072.22
2023-04-20T10:00:32.687Z,99079.88
2023-04-20T10:03:01.004Z,99066.69
2023-04-20T10:05:36.762Z,99065.63
2023-04-20T10:08:07.200Z,99059.66
2023-04-20T10:10:46.275Z,99058.19
2023-04-20T10:13:14.795Z,99051.56
2023-04-20T10:15:43.860Z,99051.16
2023-04-20T10:18:20.508Z,99053.78
2023-04-20T10:20:48.749Z,99044.22
2023-04-20T10:23:20.165Z,99049.13
2023-04-20T10:25:58.749Z,99046.94
2023-04-20T10:28:26.887Z,99037.84
2023-04-20T10:30:55.393Z,99041.28
2023-04-20T10:33:23.991Z,99046.50
2023-04-20T10:35:55.046Z,99042.22
2023-04-20T10:38:36.197Z,99044.13
2023-04-20T10:41:08.517Z,99039.97
2023-04-20T10:43:39.200Z,99036.28
2023-04-20T10:46:15.635Z,99036.81
2023-04-20T10:48:55.429Z,99038.28
2023-04-20T10:51:24.942Z,99035.16
2023-04-20T10:54:06.262Z,99038.41
2023-04-20T10:56:41.624Z,99043.75
2023-04-20T10:59:10.388Z,99033.69
2023-04-20T11:01:38.864Z,99029.97
2023-04-20T11:04:07.385Z,99030.03
2023-04-20T11:06:35.854Z,99035.47
2023-04-20T11:09:05.713Z,99033.78
2023-04-20T11:11:33.851Z,99038.78
2023-04-20T11:14:08.686Z,99055.06
2023-04-20T11:16:49.645Z,99076.06
2023-04-20T11:19:25.339Z,99067.94
2023-04-20T11:21:53.939Z,99069.09
2023-04-20T11:24:25.051Z,99070.09
2023-04-20T11:26:56.368Z,99055.88
2023-04-20T11:29:33.350Z,99037.81
2023-04-20T11:32:05.713Z,99030.94
2023-04-20T11:34:34.754Z,99020.41
2023-04-20T11:37:05.594Z,99017.28
2023-04-20T11:39:35.626Z,99016.19
2023-04-20T11:42:04.478Z,99008.44
2023-04-20T11:44:33.019Z,99001.47
2023-04-20T11:47:02.086Z,98997.25
2023-04-20T11:49:31.007Z,98992.97
2023-04-20T11:51:59.316Z,98993.03
2023-04-20T11:54:28.307Z,98987.22
2023-04-20T11:56:57.759Z,98987.19
2023-04-20T11:59:26.164Z,98986.84
2023-04-20T12:01:54.272Z,98980.59
2023-04-20T12:04:23.069Z,98975.47
2023-04-20T12:06:51.732Z,98975.84
2023-04-20T12:09:20.043Z,98977.00
2023-04-20T12:11:48.933Z,98970.72
2023-04-20T12:14:18.709Z,98976.13
2023-04-20T12:16:47.242Z,98968.97
2023-04-20T12:19:17.440Z,98968.28
2023-04-20T12:21:47.475Z,98965.91
2023-04-20T12:24:16.058Z,98963.91
2023-04-20T12:26:44.355Z,98960.28
2023-04-20T12:29:12.974Z,98956.25
2023-04-20T12:31:42.569Z,98953.22
2023-04-20T12:34:10.875Z,98957.56
2023-04-20T12:36:39.260Z,98947.53
2023-04-20T12:39:07.706Z,98941.00
2023-04-20T12:41:36.433Z,98944.13
2023-04-20T12:44:07.081Z,98941.47
2023-04-20T12:46:36.800Z,98937.44
2023-04-20T12:49:06.667Z,98935.59
2023-04-20T12:51:34.814Z,98936.34
2023-04-20T12:54:03.253Z,98929.75
2023-04-20T12:56:31.632Z,98932.38
2023-04-20T12:58:59.896Z,98931.63
2023-04-20T13:01:28.238Z,98929.56
2023-04-20T13:03:57.511Z,98929.94
2023-04-20T13:06:28.105Z,98934.47
2023-04-20T13:08:56.146Z,98929.88
2023-04-20T13:11:25.995Z,98923.78
2023-04-20T13:13:56.647Z,98928.59
2023-04-20T13:16:25.079Z,98919.13
2023-04-20T13:18:53.984Z,98930.84
2023-04-20T13:21:22.066Z,98923.72
2023-04-20T13:23:53.114Z,98925.84
2023-04-20T13:26:22.215Z,98923.19
2023-04-20T13:28:50.818Z,98938.38
2023-04-20T13:31:19.108Z,98934.59
2023-04-20T13:33:47.304Z,98935.41
2023-04-20T13:36:15.482Z,98933.59
2023-04-20T13:38:43.611Z,98940.28
2023-04-20T13:41:13.197Z,98929.69
2023-04-20T13:43:41.385Z,98930.78
2023-04-20T13:46:12.647Z,98937.66
2023-04-20T13:48:40.906Z,98931.22
2023-04-20T13:51:09.494Z,98932.13
2023-04-20T13:53:37.744Z,98926.47
2023-04-20T13:56:07.168Z,98929.94
2023-04-20T13:58:37.257Z,98930.94
2023-04-20T14:01:09.202Z,98934.88
2023-04-20T14:03:37.373Z,98928.13
2023-04-20T14:06:06.164Z,98928.56
2023-04-20T14:08:34.406Z,98932.06
2023-04-20T14:11:02.559Z,98933.97
2023-04-20T14:13:30.711Z,98931.84
2023-04-20T14:16:00.583Z,98928.22
2023-04-20T14:18:28.818Z,98936.75
2023-04-20T14:20:56.887Z,98940.16
2023-04-20T14:23:25.089Z,98937.16
2023-04-20T14:25:53.409Z,98938.41
2023-04-20T14:28:21.735Z,98945.81
2023-04-20T14:30:51.305Z,98942.34
2023-04-20T14:33:21.016Z,98943.34
2023-04-20T14:35:49.483Z,98932.81
2023-04-20T14:38:17.617Z,98934.53
2023-04-20T14:40:46.234Z,98937.66
2023-04-20T14:43:14.427Z,98932.16
2023-04-20T14:45:44.841Z,98923.41
2023-04-20T14:48:12.952Z,98919.56
2023-04-20T14:50:43.382Z,98920.25
2023-04-20T14:53:11.542Z,98930.19
2023-04-20T14:55:39.936Z,98926.22
2023-04-20T14:58:08.500Z,98930.66
2023-04-20T15:00:36.743Z,98933.03
2023-04-20T15:03:05.365Z,98930.06
2023-04-20T15:05:33.952Z,98928.19
2023-04-20T15:08:03.771Z,98930.84
2023-04-20T15:10:32.292Z,98926.13
2023-04-20T15:13:03.481Z,98923.44
2023-04-20T15:15:46.946Z,98920.81
2023-04-20T15:18:16.327Z,98927.50
2023-04-20T15:20:44.963Z,98919.50
2023-04-20T15:23:14.625Z,98922.78
2023-04-20T15:25:43.056Z,98921.59
2023-04-20T15:28:12.004Z,98920.50
2023-04-20T15:30:40.282Z,98925.72
2023-04-20T15:33:08.907Z,98933.22
2023-04-20T15:35:37.404Z,98934.94
2023-04-20T15:38:05.984Z,98944.84
2023-04-20T15:40:35.762Z,98948.59
2023-04-20T15:43:04.358Z,98944.13
2023-04-20T15:45:32.688Z,98952.88
2023-04-20T15:48:01.242Z,98954.63
2023-04-20T15:50:29.750Z,98955.94
2023-04-20T15:52:57.855Z,98958.75
2023-04-20T15:55:26.200Z,98951.81
2023-04-20T15:57:58.256Z,98955.41
2023-04-20T16:00:26.553Z,98963.75
2023-04-20T16:02:54.974Z,98966.88
2023-04-20T16:05:24.091Z,98959.84
2023-04-20T16:07:52.126Z,98967.72
2023-04-20T16:10:20.377Z,98962.31
2023-04-20T16:12:48.542Z,98966.16
2023-04-20T16:15:18.019Z,98972.09
2023-04-20T16:17:46.507Z,98972.81
2023-04-20T16:20:15.005Z,98967.81
2023-04-20T16:22:43.126Z,98972.13
2023-04-20T16:25:15.671Z,98960.84
2023-04-20T16:27:43.808Z,98963.97
2023-04-20T16:30:12.950Z,98968.66
2023-04-20T16:32:43.121Z,98967.97
2023-04-20T16:35:11.643Z,98968.81
2023-04-20T16:37:40.985Z,98968.69
2023-04-20T16:40:10.381Z,98975.41
2023-04-20T16:42:38.573Z,98969.50
2023-04-20T16:45:07.919Z,98977.38
2023-04-20T16:47:36.243Z,98966.81
2023-04-20T16:50:07.710Z,98963.38
2023-04-20T16:52:36.370Z,98965.75
2023-04-20T16:55:04.515Z,98966.59
2023-04-20T16:57:32.842Z,98971.28
2023-04-20T17:00:00.957Z,98969.75
2023-04-20T17:02:32.925Z,98971.34
2023-04-20T17:05:01.507Z,98972.97
2023-04-20T17:07:31.612Z,98975.31
2023-04-20T17:10:00.020Z,98981.56
2023-04-20T17:12:28.250Z,98979.63
2023-04-20T17:14:56.653Z,98989.00
2023-04-20T17:17:26.238Z,98991.38
2023-04-20T17:19:54.430Z,98993.31
2023-04-20T17:22:22.600Z,98997.59
2023-04-20T17:24:52.263Z,98997.22
2023-04-20T17:27:21.660Z,98996.81
2023-04-20T17:29:50.093Z,99003.44
2023-04-20T17:32:18.899Z,99001.09
2023-04-20T17:34:48.641Z,99006.97
2023-04-20T17:37:16.931Z,99007.75
2023-04-20T17:39:45.189Z,99006.59
2023-04-20T17:42:15.677Z,99008.19
2023-04-20T17:44:43.698Z,99012.06
2023-04-20T17:47:15.040Z,99009.72
2023-04-20T17:49:43.465Z,99017.91
2023-04-20T17:52:15.360Z,99008.94
2023-04-20T17:54:44.006Z,99019.88
2023-04-20T17:57:14.531Z,99021.03
2023-04-20T17:59:43.044Z,99029.19
2023-04-20T18:02:11.961Z,99038.56
2023-04-20T18:04:40.213Z,99036.63
2023-04-20T18:07:09.123Z,99040.97
2023-04-20T18:09:39.163Z,99044.47
2023-04-20T18:12:10.710Z,99049.56
2023-04-20T18:14:40.775Z,99053.47
2023-04-20T18:17:09.274Z,99056.19
2023-04-20T18:19:37.788Z,99054.22
2023-04-20T18:22:06.030Z,99048.00
2023-04-20T18:24:34.217Z,99065.16
2023-04-20T18:27:02.545Z,99065.97
2023-04-20T18:29:30.713Z,99065.19
2023-04-20T18:32:01.417Z,99070.66
2023-04-20T18:34:32.293Z,99068.28
2023-04-20T18:37:01.069Z,99079.22
2023-04-20T18:39:29.938Z,99076.88
2023-04-20T18:41:59.301Z,99076.09
2023-04-20T18:44:29.498Z,99076.09
2023-04-20T18:46:57.999Z,99081.56
2023-04-20T18:49:27.863Z,99081.56
2023-04-20T18:51:55.944Z,99078.44
2023-04-20T18:54:25.082Z,99069.09
2023-04-20T18:56:54.992Z,99078.84
2023-04-20T18:59:25.091Z,99083.50
2023-04-20T19:01:53.218Z,99082.34
2023-04-20T19:04:22.473Z,99092.47
2023-04-20T19:06:52.458Z,99091.69
2023-04-20T19:09:20.519Z,99100.25
2023-04-20T19:11:48.608Z,99099.50
2023-04-20T19:14:16.951Z,99097.50
2023-04-20T19:16:45.342Z,99092.84
2023-04-20T19:19:13.772Z,99099.06
2023-04-20T19:21:41.877Z,99095.91
2023-04-20T19:24:12.434Z,99097.91
2023-04-20T19:26:55.407Z,99093.19
2023-04-20T19:29:23.521Z,99092.03
2023-04-20T19:31:51.852Z,99105.63
2023-04-20T19:34:20.698Z,99110.66
2023-04-20T19:36:49.117Z,99114.91
2023-04-20T19:39:18.855Z,99108.69
2023-04-20T19:41:48.531Z,99112.97
2023-04-20T19:44:17.081Z,99112.59
2023-04-20T19:46:45.592Z,99115.72
2023-04-20T19:49:16.713Z,99116.09
2023-04-20T19:51:45.467Z,99116.81
2023-04-20T19:54:16.767Z,99114.47
2023-04-20T19:56:46.276Z,99108.56
2023-04-20T19:59:16.055Z,99108.94
2023-04-20T20:01:44.523Z,99112.44
2023-04-20T20:04:13.257Z,99110.50
2023-04-20T20:06:43.963Z,99104.69
2023-04-20T20:09:12.114Z,99106.63
2023-04-20T20:11:42.105Z,99106.59
2023-04-20T20:14:11.564Z,99112.44
2023-04-20T20:16:40.019Z,99114.34
2023-04-20T20:19:09.074Z,99107.00
2023-04-20T20:21:37.388Z,99110.91
2023-04-20T20:24:06.080Z,99121.03
2023-04-20T20:26:34.553Z,99121.03
2023-04-20T20:29:02.927Z,99120.31
2023-04-20T20:31:32.486Z,99120.31
2023-04-20T20:34:00.715Z,99124.59
2023-04-20T20:36:32.101Z,99121.13
2023-04-20T20:39:00.598Z,99124.63
2023-04-20T20:41:30.640Z,99124.59
2023-04-20T20:44:00.000Z,99127.38
2023-04-20T20:46:28.257Z,99126.59
2023-04-20T20:49:00.787Z,99123.88
2023-04-20T20:51:29.512Z,99128.53
2023-04-20T20:53:58.003Z,99117.22
2023-04-20T20:56:26.431Z,99124.22
2023-04-20T20:58:55.200Z,99123.41
2023-04-20T21:01:23.809Z,99122.63
2023-04-20T21:03:52.133Z,99120.69
2023-04-20T21:06:21.779Z,99123.41
2023-04-20T21:08:50.395Z,99120.69
2023-04-20T21:11:19.254Z,99118.72
2023-04-20T21:13:47.619Z,99122.59
2023-04-20T21:16:15.782Z,99119.13
2023-04-20T21:18:43.918Z,99118.72
2023-04-20T21:21:13.686Z,99120.25
2023-04-20T21:23:43.227Z,99115.53
2023-04-20T21:26:12.231Z,99110.84
2023-04-20T21:28:40.380Z,99117.13
2023-04-20T21:31:08.826Z,99118.25
2023-04-20T21:33:37.066Z,99129.50
2023-04-20T21:36:05.527Z,99119.84
2023-04-20T21:38:33.754Z,99125.25
2023-04-20T21:41:03.238Z,99122.16
2023-04-20T21:43:31.213Z,99120.94
2023-04-20T21:45:59.685Z,99131.44
2023-04-20T21:48:28.517Z,99131.03
2023-04-20T21:50:56.594Z,99134.91
2023-04-20T21:53:24.817Z,99131.75
2023-04-20T21:55:52.870Z,99130.88
2023-04-20T21:58:22.252Z,99140.91
2023-04-20T22:00:51.117Z,99140.13
2023-04-20T22:03:22.890Z,99143.59
2023-04-20T22:05:51.299Z,99146.16
2023-04-20T22:08:22.026Z,99147.69
2023-04-20T22:10:50.141Z,99138.63
2023-04-20T22:13:18.622Z,99128.75
2023-04-20T22:15:48.808Z,99126.31
2023-04-20T22:18:18.905Z,99127.09
2023-04-20T22:20:47.167Z,99127.75
2023-04-20T22:23:15.187Z,99130.00
2023-04-20T22:25:44.093Z,99127.59
2023-04-20T22:28:12.654Z,99135.00
2023-04-20T22:30:40.874Z,99133.47
2023-04-20T22:33:10.452Z,99133.31
2023-04-20T22:35:39.243Z,99127.38
2023-04-20T22:38:07.481Z,99122.59
2023-04-20T22:40:35.561Z,99128.34
2023-04-20T22:43:03.749Z,99121.28
2023-04-20T22:45:31.996Z,99121.59
2023-04-20T22:48:00.196Z,99125.44
2023-04-20T22:50:29.742Z,99121.09
2023-04-20T22:52:57.857Z,99113.66
2023-04-20T22:55:26.185Z,99115.88
2023-04-20T22:57:54.495Z,99120.47
2023-04-20T23:00:22.843Z,99116.50
2023-04-20T23:02:51.783Z,99113.28
2023-04-20T23:05:20.484Z,99112.47
2023-04-20T23:07:50.221Z,99103.91
2023-04-20T23:10:19.055Z,99105.81
2023-04-20T23:12:47.385Z,99102.25
2023-04-20T23:15:15.462Z,99102.19
2023-04-20T23:17:43.651Z,99099.84
2023-04-20T23:20:14.010Z,99094.75
2023-04-20T23:22:42.280Z,99099.72
2023-04-20T23:25:12.025Z,99088.38
2023-04-20T23:27:40.148Z,99083.25
2023-04-20T23:30:09.630Z,99073.84
2023-04-20T23:32:38.035Z,99078.44
2023-04-20T23:35:07.089Z,99066.78
2023-04-20T23:37:35.226Z,99065.19
2023-04-20T23:40:06.884Z,99065.91
2023-04-20T23:42:37.476Z,99063.94
2023-04-20T23:45:06.425Z,99069.72
2023-04-20T23:47:34.609Z,99070.44
2023-04-20T23:50:02.874Z,99067.69
2023-04-20T23:52:31.087Z,99072.69
2023-04-20T23:54:59.309Z,99071.13
2023-04-20T23:57:27.470Z,99068.41
2023-04-20T23:59:57.107Z,99062.13
